Time;durP1;ratioP1;P1;durP2;ratioP2;P2;SDS_P1;SDS_P2;PMS_P1;PMS_P2;Temp;Humidity;BMP_temperature;BMP_pressure;BME280_temperature;BME280_humidity;BME280_pressure;Samples;Min_cycle;Max_cycle;Signal;HPM_P1;HPM_P2
2021/08/26 00:01:01;;;;;;;11.10;5.00;;;17.70;96.40;;;;;;5050935;28;20028;-46
2021/08/26 00:06:18;;;;;;;8.32;5.25;;;17.60;96.60;;;;;;5050826;28;20040;-46
2021/08/26 00:08:45;;;;;;;11.07;5.28;;;17.50;97.10;;;;;;5050624;28;20029;-48
2021/08/26 00:11:12;;;;;;;10.40;6.47;;;17.50;97.30;;;;;;5050856;28;20028;-46
2021/08/26 00:13:38;;;;;;;12.85;6.22;;;17.40;96.80;;;;;;5050573;28;20035;-47
2021/08/26 00:16:04;;;;;;;8.63;6.43;;;17.40;96.80;;;;;;5050170;28;20025;-45
2021/08/26 00:18:29;;;;;;;8.43;5.80;;;17.40;96.80;;;;;;5050075;28;20056;-48
2021/08/26 00:20:55;;;;;;;8.55;5.45;;;17.40;97.00;;;;;;5050163;28;20450;-46
2021/08/26 00:23:22;;;;;;;9.65;5.90;;;17.50;97.10;;;;;;5050143;28;20033;-46
2021/08/26 00:25:51;;;;;;;12.95;5.55;;;17.50;97.20;;;;;;5051221;28;20063;-50
2021/08/26 00:28:18;;;;;;;11.95;5.68;;;17.40;97.50;;;;;;5050308;28;20052;-49
2021/08/26 00:30:43;;;;;;;8.70;5.53;;;17.40;97.50;;;;;;5050203;28;20398;-47
2021/08/26 00:33:09;;;;;;;11.13;5.82;;;17.40;97.70;;;;;;5049727;28;20021;-48
2021/08/26 00:35:34;;;;;;;9.10;6.22;;;17.40;97.50;;;;;;5050323;28;20032;-47
2021/08/26 00:38:00;;;;;;;10.13;5.80;;;17.40;97.70;;;;;;5052554;28;20025;-47
2021/08/26 00:40:26;;;;;;;9.57;6.20;;;17.40;97.90;;;;;;5054110;28;20314;-46
2021/08/26 00:42:51;;;;;;;12.30;5.82;;;17.30;98.00;;;;;;5053927;28;20500;-46
2021/08/26 00:45:17;;;;;;;10.73;6.70;;;17.30;98.10;;;;;;5053693;28;20482;-46
2021/08/26 00:47:46;;;;;;;8.70;6.60;;;17.30;98.20;;;;;;5053327;28;20067;-47
2021/08/26 00:50:13;;;;;;;15.15;6.70;;;17.30;98.30;;;;;;5053724;28;20033;-47
2021/08/26 00:52:40;;;;;;;14.73;7.10;;;17.20;98.20;;;;;;5053841;28;20053;-46
2021/08/26 00:55:08;;;;;;;14.68;7.65;;;17.30;98.30;;;;;;5053855;28;20485;-45
2021/08/26 00:57:36;;;;;;;14.15;8.13;;;17.30;98.30;;;;;;5053400;28;20045;-46
2021/08/26 01:00:09;;;;;;;9.65;7.35;;;17.30;98.30;;;;;;5053642;28;20060;-45
2021/08/26 01:03:08;;;;;;;11.95;7.35;;;17.30;98.40;;;;;;5053539;28;20037;-45
2021/08/26 01:05:40;;;;;;;9.40;6.97;;;17.30;98.50;;;;;;5052460;28;20031;-47
2021/08/26 01:08:11;;;;;;;13.05;5.88;;;17.20;98.60;;;;;;5052874;28;20024;-51
2021/08/26 01:10:37;;;;;;;7.95;6.43;;;17.20;98.80;;;;;;5053718;28;20037;-46
2021/08/26 01:13:04;;;;;;;9.98;7.50;;;17.20;98.80;;;;;;5053825;28;20056;-45
2021/08/26 01:15:29;;;;;;;8.70;6.50;;;17.20;98.90;;;;;;5053627;28;20017;-48
2021/08/26 01:17:55;;;;;;;11.15;7.13;;;17.20;99.00;;;;;;5053237;28;20021;-51
2021/08/26 01:20:22;;;;;;;8.48;6.65;;;17.20;99.10;;;;;;5053428;28;20017;-45
2021/08/26 01:22:47;;;;;;;10.35;7.40;;;17.20;99.20;;;;;;5053248;28;20095;-47
2021/08/26 01:25:17;;;;;;;13.43;8.18;;;17.20;99.30;;;;;;5053342;28;20029;-44
2021/08/26 01:27:52;;;;;;;9.70;7.00;;;17.20;99.20;;;;;;5053022;28;20386;-46
2021/08/26 01:30:24;;;;;;;11.63;8.73;;;17.20;99.40;;;;;;5053417;28;20029;-46
2021/08/26 01:32:52;;;;;;;10.98;8.18;;;17.20;99.40;;;;;;5052993;28;20041;-45
2021/08/26 01:35:19;;;;;;;13.18;9.20;;;17.20;99.50;;;;;;5053083;28;20025;-45
2021/08/26 01:37:45;;;;;;;12.73;9.27;;;17.20;99.30;;;;;;5052604;28;20024;-45
2021/08/26 01:40:11;;;;;;;14.00;9.88;;;17.30;99.40;;;;;;5052899;28;20024;-46
2021/08/26 01:42:36;;;;;;;13.05;9.43;;;17.40;99.30;;;;;;5052834;28;20024;-48
2021/08/26 01:45:04;;;;;;;16.52;9.35;;;17.30;99.40;;;;;;5052663;28;20029;-47
2021/08/26 01:47:29;;;;;;;13.82;10.13;;;17.30;99.50;;;;;;5051920;28;20025;-45
2021/08/26 01:49:55;;;;;;;15.57;9.65;;;17.30;99.60;;;;;;5052640;28;20036;-45
2021/08/26 01:52:24;;;;;;;13.85;9.60;;;17.30;99.50;;;;;;5052592;28;20032;-50
2021/08/26 01:54:51;;;;;;;14.27;8.98;;;17.30;99.30;;;;;;5052509;28;20035;-46
2021/08/26 01:57:18;;;;;;;14.90;9.45;;;17.30;99.50;;;;;;5052188;28;20021;-43
2021/08/26 01:59:44;;;;;;;20.00;9.35;;;17.20;99.60;;;;;;5052395;28;20024;-46
2021/08/26 02:02:10;;;;;;;12.15;8.80;;;17.20;99.90;;;;;;5052386;28;20286;-45
2021/08/26 02:04:35;;;;;;;15.15;10.07;;;17.20;99.90;;;;;;5052532;28;20035;-46
2021/08/26 02:07:01;;;;;;;15.35;9.82;;;17.20;99.90;;;;;;5052375;28;20033;-45
2021/08/26 02:09:26;;;;;;;13.20;9.80;;;17.10;99.90;;;;;;5051859;28;20482;-49
2021/08/26 02:11:52;;;;;;;14.65;9.40;;;17.20;99.90;;;;;;5052052;28;20037;-45
2021/08/26 02:14:17;;;;;;;12.27;9.10;;;17.20;99.90;;;;;;5052068;28;20494;-46
2021/08/26 02:16:43;;;;;;;15.15;10.70;;;17.20;99.90;;;;;;5052045;28;20017;-47
2021/08/26 02:19:08;;;;;;;11.95;9.73;;;17.20;99.90;;;;;;5051852;28;20022;-45
2021/08/26 02:21:34;;;;;;;14.40;9.13;;;17.10;99.90;;;;;;5052234;28;20501;-45
2021/08/26 02:23:59;;;;;;;12.40;9.52;;;17.10;99.90;;;;;;5052125;28;20060;-45
2021/08/26 02:26:25;;;;;;;12.52;9.00;;;17.10;99.90;;;;;;5051881;28;20516;-46
2021/08/26 02:28:51;;;;;;;15.40;9.55;;;17.20;99.90;;;;;;5050276;28;20028;-45
2021/08/26 02:31:17;;;;;;;11.95;9.25;;;17.10;99.90;;;;;;5051291;28;20021;-45
2021/08/26 02:33:42;;;;;;;12.30;8.35;;;17.10;99.90;;;;;;5051756;28;20383;-45
2021/08/26 02:36:08;;;;;;;12.63;9.00;;;17.10;99.90;;;;;;5051769;28;20029;-45
2021/08/26 02:38:33;;;;;;;10.82;8.15;;;17.10;99.90;;;;;;5051786;28;20060;-46
2021/08/26 02:40:59;;;;;;;12.75;8.25;;;17.10;99.90;;;;;;5051605;28;20494;-45
2021/08/26 02:43:24;;;;;;;14.25;9.85;;;17.10;99.90;;;;;;5050186;28;20036;-47
2021/08/26 02:45:50;;;;;;;9.93;8.50;;;17.10;99.90;;;;;;5051321;28;20078;-45
2021/08/26 02:48:16;;;;;;;9.30;8.02;;;17.10;99.90;;;;;;5049724;28;20025;-45
2021/08/26 02:50:41;;;;;;;10.10;8.30;;;17.10;99.90;;;;;;5051334;28;20383;-46
2021/08/26 02:53:07;;;;;;;9.57;8.50;;;17.10;99.90;;;;;;5051561;28;20127;-46
2021/08/26 02:55:32;;;;;;;9.15;8.25;;;17.10;99.90;;;;;;5051348;28;20587;-45
2021/08/26 02:57:58;;;;;;;11.80;8.48;;;17.20;99.90;;;;;;5050833;28;20025;-45
2021/08/26 03:00:23;;;;;;;11.45;7.97;;;17.20;99.90;;;;;;5050694;28;20532;-45
2021/08/26 03:02:49;;;;;;;9.18;8.00;;;17.20;99.90;;;;;;5051192;28;20081;-46
2021/08/26 03:05:14;;;;;;;10.38;8.20;;;17.20;99.90;;;;;;5051192;28;20063;-48
2021/08/26 03:07:40;;;;;;;13.35;8.18;;;17.20;99.90;;;;;;5050844;28;20108;-45
2021/08/26 03:10:06;;;;;;;11.73;8.10;;;17.20;99.90;;;;;;5051185;28;20608;-49
2021/08/26 03:12:32;;;;;;;14.27;9.30;;;17.20;99.90;;;;;;5050977;28;20094;-48
2021/08/26 03:14:57;;;;;;;12.18;9.93;;;17.20;99.90;;;;;;5051211;28;20025;-45
2021/08/26 03:17:23;;;;;;;13.32;10.32;;;17.20;99.90;;;;;;5050773;28;20017;-45
2021/08/26 03:19:48;;;;;;;11.93;10.40;;;17.10;99.90;;;;;;5051011;28;20031;-47
2021/08/26 03:22:14;;;;;;;11.18;9.75;;;17.00;99.90;;;;;;5051021;28;20103;-45
2021/08/26 03:24:39;;;;;;;10.40;9.30;;;16.90;99.90;;;;;;5051115;28;20086;-44
2021/08/26 03:27:05;;;;;;;15.50;11.15;;;16.90;99.90;;;;;;5050837;28;20262;-46
2021/08/26 03:29:30;;;;;;;14.00;10.43;;;16.80;99.90;;;;;;5050555;28;20568;-45
2021/08/26 03:31:56;;;;;;;14.23;11.88;;;16.80;99.90;;;;;;5050423;28;20033;-45
2021/08/26 03:34:21;;;;;;;12.77;11.48;;;16.70;99.90;;;;;;5050719;28;20536;-45
2021/08/26 03:36:47;;;;;;;13.73;11.23;;;16.70;99.90;;;;;;5049434;28;20061;-49
2021/08/26 03:39:12;;;;;;;12.40;10.38;;;16.70;99.90;;;;;;5050495;28;20063;-45
2021/08/26 03:41:38;;;;;;;14.15;11.57;;;16.60;99.90;;;;;;5050540;28;20517;-48
2021/08/26 03:44:04;;;;;;;13.98;12.02;;;16.60;99.90;;;;;;5050497;28;20066;-45
2021/08/26 03:46:30;;;;;;;15.52;11.90;;;16.50;99.90;;;;;;5050485;28;20112;-48
2021/08/26 03:48:56;;;;;;;15.18;13.65;;;16.50;99.90;;;;;;5050340;28;20499;-47
2021/08/26 03:51:21;;;;;;;14.23;12.15;;;16.50;99.90;;;;;;5050470;28;20143;-45
2021/08/26 03:53:47;;;;;;;19.48;12.38;;;16.50;99.90;;;;;;5050564;28;20037;-45
2021/08/26 03:56:13;;;;;;;17.67;13.23;;;16.40;99.90;;;;;;5050441;28;20036;-45
2021/08/26 03:58:38;;;;;;;22.67;13.85;;;16.40;99.90;;;;;;5050294;28;20524;-45
2021/08/26 04:01:05;;;;;;;15.70;13.13;;;16.30;99.90;;;;;;5050323;28;20052;-45
2021/08/26 04:03:30;;;;;;;15.88;13.23;;;16.30;99.90;;;;;;5050799;28;20051;-46
2021/08/26 04:05:56;;;;;;;15.77;12.95;;;16.30;99.90;;;;;;5050403;28;20025;-45
2021/08/26 04:08:22;;;;;;;19.40;13.30;;;16.20;99.90;;;;;;5050027;28;20322;-46
2021/08/26 04:10:47;;;;;;;17.05;13.95;;;16.10;99.90;;;;;;5051030;28;20033;-46
2021/08/26 04:13:13;;;;;;;16.08;13.45;;;16.10;99.90;;;;;;5054372;28;20425;-45
2021/08/26 04:15:38;;;;;;;16.08;13.45;;;16.10;99.90;;;;;;5054429;28;20071;-47
2021/08/26 04:18:04;;;;;;;14.63;12.10;;;16.10;99.90;;;;;;5054210;28;20063;-47
2021/08/26 04:20:29;;;;;;;17.08;13.45;;;16.00;99.90;;;;;;5054451;28;20060;-45
2021/08/26 04:22:55;;;;;;;16.85;13.52;;;16.00;99.90;;;;;;5054471;28;20029;-47
2021/08/26 04:25:20;;;;;;;15.68;13.35;;;16.00;99.90;;;;;;5054316;28;20040;-46
2021/08/26 04:27:46;;;;;;;17.38;13.82;;;16.00;99.90;;;;;;5053957;28;20454;-45
2021/08/26 04:30:12;;;;;;;21.30;14.60;;;16.00;99.90;;;;;;5054158;28;20059;-45
2021/08/26 04:32:38;;;;;;;16.15;14.20;;;15.90;99.90;;;;;;5053573;28;20033;-46
2021/08/26 04:35:04;;;;;;;18.92;13.07;;;15.90;99.90;;;;;;5054341;28;20036;-46
2021/08/26 04:37:29;;;;;;;17.45;13.43;;;15.80;99.90;;;;;;5054147;28;20286;-45
2021/08/26 04:39:55;;;;;;;19.92;15.35;;;15.80;99.90;;;;;;5054181;28;20070;-47
2021/08/26 04:42:21;;;;;;;16.25;13.18;;;15.70;99.90;;;;;;5054493;28;20024;-46
2021/08/26 04:44:47;;;;;;;19.85;16.27;;;15.70;99.90;;;;;;5053980;28;20202;-45
2021/08/26 04:47:12;;;;;;;22.63;16.75;;;15.70;99.90;;;;;;5053647;28;20037;-45
2021/08/26 04:49:38;;;;;;;26.50;18.38;;;15.70;99.90;;;;;;5053875;28;20029;-45
2021/08/26 04:52:04;;;;;;;24.88;17.48;;;15.70;99.90;;;;;;5054149;28;20025;-47
2021/08/26 04:54:30;;;;;;;21.77;16.92;;;15.70;99.90;;;;;;5054055;28;20500;-46
2021/08/26 04:56:55;;;;;;;21.02;16.45;;;15.70;99.90;;;;;;5054093;28;20116;-45
2021/08/26 04:59:21;;;;;;;22.67;17.60;;;15.70;99.90;;;;;;5053497;28;20104;-48
2021/08/26 05:01:46;;;;;;;20.90;17.52;;;15.70;99.90;;;;;;5053870;28;20506;-48
2021/08/26 05:04:12;;;;;;;21.23;17.17;;;15.70;99.90;;;;;;5053623;28;20025;-46
2021/08/26 05:06:37;;;;;;;20.00;17.13;;;15.70;99.90;;;;;;5053555;28;20032;-48
2021/08/26 05:09:03;;;;;;;25.60;17.30;;;15.70;99.90;;;;;;5053312;28;20028;-45
2021/08/26 05:11:28;;;;;;;21.48;16.77;;;15.60;99.90;;;;;;5054095;28;20520;-45
2021/08/26 05:13:54;;;;;;;19.70;16.92;;;15.60;99.90;;;;;;5053374;28;20021;-45
2021/08/26 05:16:19;;;;;;;26.08;18.65;;;15.50;99.90;;;;;;5053528;28;20478;-48
2021/08/26 05:18:45;;;;;;;22.45;18.13;;;15.50;99.90;;;;;;5053261;28;20071;-46
2021/08/26 05:21:10;;;;;;;26.27;18.48;;;15.50;99.90;;;;;;5053531;28;20527;-46
2021/08/26 05:23:36;;;;;;;24.30;17.80;;;15.60;99.90;;;;;;5052917;28;20025;-47
2021/08/26 05:26:02;;;;;;;22.17;17.13;;;15.50;99.90;;;;;;5053420;28;20090;-45
2021/08/26 05:28:28;;;;;;;21.13;16.50;;;15.50;99.90;;;;;;5052969;28;20039;-45
2021/08/26 05:30:53;;;;;;;20.60;16.30;;;15.50;99.90;;;;;;5052723;28;20024;-47
2021/08/26 05:33:18;;;;;;;22.50;16.25;;;15.50;99.90;;;;;;5053084;28;20068;-45
2021/08/26 05:35:44;;;;;;;32.10;17.13;;;15.50;99.90;;;;;;5053121;28;20107;-46
2021/08/26 05:38:09;;;;;;;26.13;16.98;;;15.50;99.90;;;;;;5052540;28;20033;-46
2021/08/26 05:40:35;;;;;;;21.15;16.65;;;15.40;99.90;;;;;;5052825;28;20492;-45
2021/08/26 05:43:00;;;;;;;26.00;16.02;;;15.40;99.90;;;;;;5052828;28;20025;-46
2021/08/26 05:45:27;;;;;;;21.88;15.85;;;15.30;99.90;;;;;;5052801;28;20029;-46
2021/08/26 05:47:56;;;;;;;21.88;15.70;;;15.30;99.90;;;;;;5052454;28;20501;-47
2021/08/26 05:50:24;;;;;;;20.20;15.25;;;15.40;99.90;;;;;;5052755;28;20401;-45
2021/08/26 05:52:51;;;;;;;22.90;15.52;;;15.40;99.90;;;;;;5052484;28;20055;-50
2021/08/26 05:55:17;;;;;;;19.85;15.88;;;15.30;99.90;;;;;;5052491;28;20031;-50
2021/08/26 05:57:43;;;;;;;19.75;16.42;;;15.30;99.90;;;;;;5051965;28;20021;-45
2021/08/26 06:00:09;;;;;;;20.73;16.50;;;15.30;99.90;;;;;;5052379;28;20079;-45
2021/08/26 06:02:34;;;;;;;21.40;16.15;;;15.30;99.90;;;;;;5052317;28;20024;-47
2021/08/26 06:05:00;;;;;;;21.65;15.85;;;15.30;99.90;;;;;;5052330;28;20713;-47
2021/08/26 06:07:25;;;;;;;19.48;17.13;;;15.40;99.90;;;;;;5051823;28;20032;-47
2021/08/26 06:09:51;;;;;;;19.27;15.75;;;15.40;99.90;;;;;;5052115;28;20074;-48
2021/08/26 06:12:16;;;;;;;23.40;15.02;;;15.40;99.90;;;;;;5052045;28;20036;-48
2021/08/26 06:14:42;;;;;;;17.63;14.73;;;15.40;99.90;;;;;;5052355;28;20066;-46
2021/08/26 06:17:07;;;;;;;16.95;14.57;;;15.50;99.90;;;;;;5051883;28;20033;-46
2021/08/26 06:19:33;;;;;;;23.75;16.42;;;15.50;99.90;;;;;;5052163;28;20025;-50
2021/08/26 06:21:58;;;;;;;21.75;16.60;;;15.70;99.90;;;;;;5052049;28;20033;-44
2021/08/26 06:24:24;;;;;;;21.33;16.85;;;15.70;99.90;;;;;;5052012;28;20025;-45
2021/08/26 06:26:49;;;;;;;18.55;15.07;;;15.80;99.90;;;;;;5066799;22;20085;-51
2021/08/26 06:29:15;;;;;;;18.00;14.48;;;15.80;99.90;;;;;;5051352;28;20075;-48
2021/08/26 06:31:41;;;;;;;21.60;15.00;;;15.70;99.90;;;;;;5050707;28;20025;-48
2021/08/26 06:34:06;;;;;;;24.98;15.98;;;15.70;99.90;;;;;;5051086;28;20367;-48
2021/08/26 06:36:32;;;;;;;16.58;14.48;;;15.70;99.90;;;;;;5053003;28;20029;-46
2021/08/26 06:38:58;;;;;;;17.02;13.98;;;15.70;99.90;;;;;;5053738;28;20103;-50
2021/08/26 06:41:24;;;;;;;20.52;14.68;;;15.80;99.90;;;;;;5053924;28;20017;-49
2021/08/26 06:43:50;;;;;;;15.52;13.18;;;15.80;99.90;;;;;;5050174;28;20044;-45
2021/08/26 06:46:15;;;;;;;20.48;13.07;;;15.80;99.90;;;;;;5051864;28;20120;-45
2021/08/26 06:48:41;;;;;;;16.02;12.57;;;15.90;99.90;;;;;;5050838;28;20024;-47
2021/08/26 06:51:07;;;;;;;17.33;13.27;;;15.90;99.90;;;;;;5051508;28;20029;-46
2021/08/26 06:53:32;;;;;;;15.60;10.85;;;15.90;99.90;;;;;;5051402;28;20120;-47
2021/08/26 06:55:58;;;;;;;11.50;9.15;;;16.00;99.90;;;;;;5051161;28;20040;-46
2021/08/26 06:58:23;;;;;;;11.90;8.70;;;16.00;99.90;;;;;;5050760;28;20021;-48
2021/08/26 07:00:48;;;;;;;10.50;8.38;;;16.00;99.90;;;;;;5051827;28;20025;-46
2021/08/26 07:03:14;;;;;;;8.68;7.68;;;16.10;99.90;;;;;;5051347;28;20158;-46
2021/08/26 07:05:40;;;;;;;6.90;6.20;;;16.10;99.90;;;;;;5050887;28;20036;-46
2021/08/26 07:08:05;;;;;;;6.25;5.65;;;16.10;99.90;;;;;;5050247;28;20028;-46
2021/08/26 07:10:31;;;;;;;5.70;5.20;;;16.20;99.90;;;;;;5051217;28;20025;-45
2021/08/26 07:12:56;;;;;;;6.57;4.47;;;16.20;99.90;;;;;;5051483;28;20032;-48
2021/08/26 07:15:25;;;;;;;4.20;3.35;;;16.20;99.90;;;;;;5051704;28;20052;-45
2021/08/26 07:17:51;;;;;;;3.10;2.85;;;16.10;99.90;;;;;;5050713;28;20520;-45
2021/08/26 07:20:16;;;;;;;5.47;2.30;;;16.10;99.90;;;;;;5051796;28;20139;-44
2021/08/26 07:22:42;;;;;;;2.25;1.95;;;16.20;99.90;;;;;;5051108;28;20052;-43
2021/08/26 07:25:08;;;;;;;3.05;2.05;;;16.20;99.90;;;;;;5050102;28;20402;-45
2021/08/26 07:27:33;;;;;;;7.20;2.60;;;16.20;99.90;;;;;;5051341;28;20032;-45
2021/08/26 07:29:59;;;;;;;5.68;2.53;;;16.30;99.90;;;;;;5052993;28;20025;-45
2021/08/26 07:32:24;;;;;;;6.03;3.05;;;16.30;99.90;;;;;;5051208;28;20036;-45
2021/08/26 07:34:50;;;;;;;2.38;2.00;;;16.30;99.90;;;;;;5050163;28;20112;-47
2021/08/26 07:37:15;;;;;;;2.92;2.42;;;16.40;99.90;;;;;;5051130;28;20035;-46
2021/08/26 07:39:41;;;;;;;5.50;2.40;;;16.40;99.90;;;;;;5051639;28;20029;-49
2021/08/26 07:42:06;;;;;;;6.32;2.50;;;16.40;99.90;;;;;;5052499;28;20033;-45
2021/08/26 07:44:32;;;;;;;3.50;2.55;;;16.60;99.90;;;;;;5053132;28;20034;-46
2021/08/26 07:46:58;;;;;;;5.82;2.80;;;16.70;99.90;;;;;;5053039;28;20033;-47
2021/08/26 07:49:23;;;;;;;4.90;2.50;;;16.90;99.90;;;;;;5052233;28;20029;-48
2021/08/26 07:51:49;;;;;;;6.43;2.50;;;17.30;99.90;;;;;;5052303;28;20031;-46
2021/08/26 07:54:14;;;;;;;5.22;2.38;;;17.60;99.90;;;;;;5051213;28;20021;-45
2021/08/26 07:56:40;;;;;;;6.18;2.38;;;17.90;99.90;;;;;;5051905;28;20025;-45
2021/08/26 07:59:08;;;;;;;5.82;2.92;;;18.40;99.90;;;;;;5051782;28;20021;-45
2021/08/26 08:01:34;;;;;;;3.05;1.90;;;18.90;99.90;;;;;;5052291;28;20028;-48
2021/08/26 08:03:59;;;;;;;4.13;2.00;;;19.50;99.40;;;;;;5052826;28;20025;-45
2021/08/26 08:06:25;;;;;;;5.95;1.90;;;20.50;96.30;;;;;;5052090;28;20028;-45
2021/08/26 08:08:50;;;;;;;3.28;1.70;;;21.80;94.70;;;;;;5051570;28;20024;-49
2021/08/26 08:11:16;;;;;;;4.85;2.28;;;23.00;93.30;;;;;;5051880;28;20029;-45
2021/08/26 08:13:42;;;;;;;3.45;1.83;;;23.90;90.40;;;;;;5051586;28;20037;-47
2021/08/26 08:16:07;;;;;;;2.90;1.73;;;24.60;87.20;;;;;;5050797;28;20029;-46
2021/08/26 08:18:33;;;;;;;4.72;2.00;;;25.10;84.40;;;;;;5049840;28;20382;-46
2021/08/26 08:21:01;;;;;;;6.18;1.92;;;25.20;81.70;;;;;;5050299;28;20021;-47
2021/08/26 08:23:27;;;;;;;4.20;1.98;;;25.20;80.40;;;;;;5050299;28;20103;-51
2021/08/26 08:25:52;;;;;;;7.28;2.20;;;23.80;82.00;;;;;;5050259;28;20129;-51
2021/08/26 08:28:18;;;;;;;2.28;1.60;;;22.90;84.30;;;;;;5049557;28;20092;-48
2021/08/26 08:30:44;;;;;;;3.63;2.35;;;21.90;87.20;;;;;;5050497;28;20394;-47
2021/08/26 08:33:10;;;;;;;4.20;1.70;;;21.10;90.20;;;;;;5049582;28;20036;-48
2021/08/26 08:35:35;;;;;;;6.93;2.25;;;20.60;90.90;;;;;;5049983;28;20475;-48
2021/08/26 08:38:01;;;;;;;5.63;2.40;;;21.00;91.30;;;;;;5049026;28;20029;-48
2021/08/26 08:40:27;;;;;;;3.15;1.90;;;21.90;89.70;;;;;;5049889;28;20044;-50
2021/08/26 08:42:53;;;;;;;5.05;2.10;;;22.70;87.60;;;;;;5050016;28;20399;-48
2021/08/26 08:45:19;;;;;;;5.45;2.17;;;23.50;84.40;;;;;;5050096;28;20108;-49
2021/08/26 08:47:47;;;;;;;3.42;2.13;;;24.00;79.10;;;;;;5049549;28;20033;-52
2021/08/26 08:50:14;;;;;;;3.90;1.98;;;24.60;74.70;;;;;;5048873;28;20040;-48
2021/08/26 08:52:40;;;;;;;3.92;2.17;;;25.30;74.40;;;;;;5050095;28;20124;-48
2021/08/26 08:55:09;;;;;;;5.95;1.83;;;26.20;74.00;;;;;;5050097;28;20052;-46
2021/08/26 08:57:38;;;;;;;2.78;2.22;;;26.50;68.00;;;;;;5050003;28;20130;-46
2021/08/26 09:00:09;;;;;;;2.40;1.70;;;27.00;66.00;;;;;;5054046;28;20021;-47
2021/08/26 09:02:35;;;;;;;2.78;1.90;;;27.20;66.80;;;;;;5054162;28;20043;-46
2021/08/26 09:05:01;;;;;;;6.40;2.03;;;27.70;65.00;;;;;;5052693;28;20470;-51
2021/08/26 09:07:31;;;;;;;3.90;2.30;;;27.20;64.90;;;;;;5053040;28;20029;-47
2021/08/26 09:09:58;;;;;;;2.42;1.70;;;26.90;66.90;;;;;;5053788;28;20436;-46
2021/08/26 09:12:44;;;;;;;2.70;1.80;;;26.70;66.70;;;;;;5053829;28;20025;-48
2021/08/26 09:15:14;;;;;;;9.77;2.08;;;26.40;66.70;;;;;;5052569;28;20494;-48
2021/08/26 09:17:40;;;;;;;3.25;1.80;;;25.60;67.70;;;;;;5051828;28;20032;-50
2021/08/26 09:20:09;;;;;;;6.72;2.33;;;24.70;69.80;;;;;;5054110;28;20017;-51
2021/08/26 09:22:34;;;;;;;5.05;1.85;;;23.70;71.70;;;;;;5053650;28;20039;-52
2021/08/26 09:25:00;;;;;;;3.42;1.80;;;23.60;71.40;;;;;;5053478;28;20025;-52
2021/08/26 09:27:31;;;;;;;1.83;1.33;;;23.60;71.90;;;;;;5052290;28;20055;-50
2021/08/26 09:30:07;;;;;;;3.83;1.65;;;23.60;72.20;;;;;;5053113;28;20021;-51
2021/08/26 09:32:48;;;;;;;2.97;1.58;;;23.80;72.40;;;;;;5052959;28;20028;-47
2021/08/26 09:35:18;;;;;;;2.70;1.67;;;24.10;72.50;;;;;;5053169;28;20108;-49
2021/08/26 09:37:50;;;;;;;4.35;1.70;;;24.20;72.40;;;;;;5052350;28;20040;-47
2021/08/26 09:40:19;;;;;;;2.97;1.95;;;23.80;71.10;;;;;;5052903;28;20457;-51
2021/08/26 09:42:54;;;;;;;5.53;1.52;;;23.90;71.20;;;;;;5052566;28;20025;-51
2021/08/26 09:45:20;;;;;;;;;;;24.20;71.30;;;;;;5053463;28;20043;-51
2021/08/26 09:48:07;;;;;;;2.92;1.30;;;24.20;70.30;;;;;;5051669;28;20006;-49
2021/08/26 09:50:43;;;;;;;4.47;2.35;;;24.30;71.20;;;;;;5052691;28;20033;-47
2021/08/26 09:53:11;;;;;;;2.08;1.35;;;24.50;71.70;;;;;;5052599;28;20043;-49
2021/08/26 09:55:49;;;;;;;3.03;1.50;;;24.60;71.10;;;;;;5052423;28;20024;-47
2021/08/26 09:58:16;;;;;;;3.65;1.55;;;24.40;72.90;;;;;;5051643;28;20017;-50
2021/08/26 10:00:41;;;;;;;5.78;1.80;;;24.30;73.30;;;;;;5052292;28;20502;-49
2021/08/26 10:03:10;;;;;;;3.25;1.63;;;24.30;72.90;;;;;;5052207;28;20032;-50
2021/08/26 10:05:42;;;;;;;4.85;1.50;;;24.30;72.60;;;;;;5052678;28;20102;-50
2021/08/26 10:08:07;;;;;;;3.97;1.27;;;24.10;71.20;;;;;;5051403;28;20389;-51
2021/08/26 10:10:34;;;;;;;1.90;1.25;;;23.40;72.20;;;;;;5052098;28;20033;-50
2021/08/26 10:13:00;;;;;;;3.28;1.25;;;22.80;74.20;;;;;;5052086;28;20064;-49
2021/08/26 10:15:27;;;;;;;5.43;1.92;;;22.30;75.90;;;;;;5052132;28;20028;-50
2021/08/26 10:17:53;;;;;;;3.03;1.38;;;22.10;76.90;;;;;;5051132;28;20061;-51
2021/08/26 10:20:22;;;;;;;6.05;1.73;;;21.90;76.40;;;;;;5052100;28;20029;-53
2021/08/26 10:22:49;;;;;;;2.10;1.05;;;21.70;76.90;;;;;;5051981;28;20021;-48
2021/08/26 10:25:15;;;;;;;2.33;1.23;;;21.40;77.30;;;;;;5052100;28;20025;-49
2021/08/26 10:27:43;;;;;;;5.95;1.40;;;21.10;78.40;;;;;;5051049;28;20120;-50
2021/08/26 10:30:09;;;;;;;1.45;0.98;;;21.10;78.20;;;;;;5051764;28;20298;-47
2021/08/26 10:32:34;;;;;;;2.65;1.30;;;21.00;78.20;;;;;;5050395;28;20288;-49
2021/08/26 10:35:05;;;;;;;3.03;1.10;;;21.10;79.50;;;;;;5051850;28;20104;-49
2021/08/26 10:37:51;;;;;;;1.83;1.10;;;21.20;77.80;;;;;;5050875;28;20032;-47
2021/08/26 10:40:38;;;;;;;4.47;0.95;;;21.10;77.80;;;;;;5051735;28;20024;-47
2021/08/26 10:43:05;;;;;;;4.53;1.08;;;21.30;75.50;;;;;;5051404;28;20024;-49
2021/08/26 10:45:50;;;;;;;1.55;1.00;;;21.30;75.90;;;;;;5051594;28;20024;-50
2021/08/26 10:48:24;;;;;;;1.33;0.88;;;21.20;76.00;;;;;;5050885;28;20037;-49
2021/08/26 10:51:02;;;;;;;2.45;1.35;;;21.10;76.10;;;;;;5051159;28;20367;-47
2021/08/26 10:53:33;;;;;;;5.22;1.40;;;21.20;77.00;;;;;;5051454;28;20025;-50
2021/08/26 10:56:18;;;;;;;1.98;1.27;;;21.20;77.10;;;;;;5049869;28;20116;-48
2021/08/26 10:58:46;;;;;;;2.13;1.02;;;21.10;77.10;;;;;;5050581;28;20025;-47
2021/08/26 11:01:43;;;;;;;1.00;1.00;;;21.20;77.70;;;;;;5051295;28;20082;-48
2021/08/26 11:04:29;;;;;;;3.72;1.13;;;21.10;77.80;;;;;;5042979;28;20094;-49
2021/08/26 11:06:55;;;;;;;2.80;1.30;;;21.20;77.50;;;;;;5050242;28;20033;-49
2021/08/26 11:09:22;;;;;;;1.48;1.10;;;21.30;77.50;;;;;;5050400;28;20024;-47
2021/08/26 11:11:49;;;;;;;2.40;1.42;;;21.40;77.70;;;;;;5049567;28;20028;-45
2021/08/26 11:14:18;;;;;;;1.92;1.50;;;21.40;77.00;;;;;;5051349;28;20021;-49
2021/08/26 11:16:46;;;;;;;7.22;1.70;;;21.30;77.00;;;;;;5050720;28;20502;-46
2021/08/26 11:19:12;;;;;;;3.45;1.50;;;21.20;77.20;;;;;;5050825;28;20021;-52
2021/08/26 11:21:44;;;;;;;3.30;1.48;;;21.10;77.60;;;;;;5050810;28;20112;-52
2021/08/26 11:24:12;;;;;;;4.50;1.60;;;21.20;79.40;;;;;;5050694;28;20021;-50
2021/08/26 11:26:58;;;;;;;4.93;1.55;;;21.30;78.90;;;;;;5050743;28;20048;-48
2021/08/26 11:29:23;;;;;;;7.22;6.03;;;21.30;78.60;;;;;;5050696;28;20100;-50
2021/08/26 11:31:55;;;;;;;3.45;2.33;;;21.30;78.30;;;;;;5050795;28;20056;-48
2021/08/26 11:34:40;;;;;;;3.88;1.42;;;21.30;79.10;;;;;;5050583;28;20027;-45
2021/08/26 11:37:15;;;;;;;4.63;1.52;;;21.50;80.70;;;;;;5050786;28;20336;-50
2021/08/26 11:39:56;;;;;;;6.20;1.33;;;21.60;79.70;;;;;;5051177;28;20364;-46
2021/08/26 11:42:33;;;;;;;5.15;1.33;;;21.70;78.90;;;;;;5051262;28;20550;-47
2021/08/26 11:45:17;;;;;;;2.38;1.33;;;21.60;78.60;;;;;;5051322;28;20253;-46
2021/08/26 11:47:50;;;;;;;2.63;1.20;;;21.60;78.20;;;;;;5050309;28;20033;-46
2021/08/26 11:50:16;;;;;;;1.73;1.00;;;21.60;79.20;;;;;;5050920;28;20017;-53
2021/08/26 11:52:44;;;;;;;2.78;0.80;;;21.40;78.80;;;;;;5051180;28;20126;-50
2021/08/26 11:55:09;;;;;;;4.00;1.40;;;21.50;80.50;;;;;;5053955;28;20067;-47
2021/08/26 11:57:35;;;;;;;5.13;1.25;;;21.40;79.50;;;;;;5059954;28;20037;-51
2021/08/26 12:00:15;;;;;;;2.78;1.08;;;21.40;79.70;;;;;;5062514;28;20447;-51
2021/08/26 12:02:48;;;;;;;2.47;1.60;;;21.30;79.80;;;;;;5050421;28;20513;-54
2021/08/26 12:05:14;;;;;;;3.25;1.27;;;21.30;81.30;;;;;;5050605;28;20501;-48
2021/08/26 12:07:42;;;;;;;2.55;1.10;;;21.30;81.10;;;;;;5050189;28;20029;-50
2021/08/26 12:10:25;;;;;;;3.70;1.40;;;21.20;80.50;;;;;;5050473;28;20047;-48
2021/08/26 12:13:03;;;;;;;1.38;1.05;;;21.00;81.10;;;;;;5050112;28;20033;-51
2021/08/26 12:15:39;;;;;;;4.30;1.13;;;21.00;81.80;;;;;;5050389;28;20728;-52
2021/08/26 12:18:22;;;;;;;3.78;1.13;;;21.10;80.90;;;;;;5050511;28;20033;-54
2021/08/26 12:20:55;;;;;;;7.07;1.30;;;21.00;81.10;;;;;;5050204;28;20098;-48
2021/08/26 12:23:28;;;;;;;2.30;1.10;;;21.00;81.00;;;;;;5050228;28;20112;-52
2021/08/26 12:26:10;;;;;;;5.43;1.10;;;21.00;81.20;;;;;;5050459;28;20025;-49
2021/08/26 12:28:40;;;;;;;1.30;0.77;;;21.00;81.10;;;;;;5049638;28;20068;-49
2021/08/26 12:31:10;;;;;;;1.90;1.20;;;20.90;81.30;;;;;;5049905;28;20027;-54
2021/08/26 12:33:37;;;;;;;3.25;1.15;;;20.90;81.90;;;;;;5052084;28;20017;-49
2021/08/26 12:36:04;;;;;;;4.43;1.25;;;20.80;81.80;;;;;;5053934;28;20017;-47
2021/08/26 12:38:34;;;;;;;2.35;0.90;;;20.90;83.30;;;;;;5053863;28;20033;-48
2021/08/26 12:41:05;;;;;;;3.92;1.25;;;20.80;82.10;;;;;;5053734;28;20091;-48
2021/08/26 12:43:44;;;;;;;2.28;1.05;;;20.90;82.60;;;;;;5053956;28;20441;-52